createdAt,value
2023-03-19T00:00:27.147Z,3.33
2023-03-19T00:02:53.602Z,3.67
2023-03-19T00:05:20.353Z,3.37
2023-03-19T00:07:46.761Z,4.03
2023-03-19T00:10:13.297Z,3.43
2023-03-19T00:12:39.754Z,3.60
2023-03-19T00:15:08.893Z,3.80
2023-03-19T00:17:35.881Z,3.53
2023-03-19T00:20:02.541Z,3.53
2023-03-19T00:22:28.897Z,3.73
2023-03-19T00:24:55.375Z,3.53
2023-03-19T00:27:21.743Z,3.80
2023-03-19T00:29:48.089Z,3.47
2023-03-19T00:32:14.672Z,3.33
2023-03-19T00:34:41.817Z,3.87
2023-03-19T00:37:08.902Z,3.80
2023-03-19T00:39:35.421Z,3.43
2023-03-19T00:42:02.037Z,3.60
2023-03-19T00:44:28.463Z,3.30
2023-03-19T00:46:54.913Z,3.97
2023-03-19T00:49:21.279Z,3.10
2023-03-19T00:51:47.759Z,3.17
2023-03-19T00:54:14.286Z,3.13
2023-03-19T00:56:41.082Z,3.00
2023-03-19T00:59:07.758Z,3.60
2023-03-19T01:01:34.665Z,2.80
2023-03-19T01:04:01.428Z,3.23
2023-03-19T01:06:28.025Z,3.10
2023-03-19T01:08:54.384Z,3.13
2023-03-19T01:11:20.937Z,3.00
2023-03-19T01:13:47.965Z,3.20
2023-03-19T01:16:14.419Z,3.07
2023-03-19T01:18:41.135Z,3.43
2023-03-19T01:21:08.249Z,3.30
2023-03-19T01:23:34.642Z,3.37
2023-03-19T01:26:01.108Z,3.30
2023-03-19T01:28:27.520Z,3.40
2023-03-19T01:30:58.745Z,3.10
2023-03-19T01:33:25.783Z,3.27
2023-03-19T01:35:52.175Z,3.33
2023-03-19T01:38:19.642Z,3.07
2023-03-19T01:40:47.479Z,3.23
2023-03-19T01:43:18.462Z,3.60
2023-03-19T01:45:45.883Z,3.10
2023-03-19T01:48:33.056Z,3.60
2023-03-19T01:51:00.801Z,3.07
2023-03-19T01:53:31.621Z,3.10
2023-03-19T01:56:11.566Z,3.00
2023-03-19T01:58:40.087Z,3.57
2023-03-19T02:01:06.486Z,3.10
2023-03-19T02:03:33.940Z,3.30
2023-03-19T02:06:00.978Z,3.00
2023-03-19T02:08:28.790Z,3.30
2023-03-19T02:11:00.045Z,3.20
2023-03-19T02:13:27.800Z,3.20
2023-03-19T02:15:55.045Z,3.10
2023-03-19T02:18:21.924Z,2.90
2023-03-19T02:20:56.917Z,3.53
2023-03-19T02:24:02.336Z,3.10
2023-03-19T02:26:30.786Z,3.17
2023-03-19T02:28:57.134Z,2.93
2023-03-19T02:31:23.765Z,2.70
2023-03-19T02:34:11.971Z,2.70
2023-03-19T02:36:44.240Z,2.47
2023-03-19T02:39:21.469Z,2.60
2023-03-19T02:41:48.921Z,2.67
2023-03-19T02:44:19.804Z,2.50
2023-03-19T02:46:46.441Z,2.60
2023-03-19T02:49:13.100Z,2.40
2023-03-19T02:51:39.534Z,2.40
2023-03-19T02:54:06.216Z,2.80
2023-03-19T02:56:32.726Z,2.40
2023-03-19T02:58:59.212Z,2.30
2023-03-19T03:01:25.869Z,2.67
2023-03-19T03:03:52.276Z,2.17
2023-03-19T03:06:18.707Z,2.40
2023-03-19T03:08:45.392Z,2.50
2023-03-19T03:11:11.781Z,2.20
2023-03-19T03:13:38.218Z,2.67
2023-03-19T03:16:04.872Z,2.57
2023-03-19T03:18:31.326Z,2.30
2023-03-19T03:20:57.982Z,2.43
2023-03-19T03:23:24.390Z,2.20
2023-03-19T03:25:52.021Z,2.50
2023-03-19T03:28:19.271Z,2.10
2023-03-19T03:30:46.605Z,2.30
2023-03-19T03:33:13.103Z,2.13
2023-03-19T03:35:39.679Z,2.20
2023-03-19T03:38:06.669Z,2.20
2023-03-19T03:40:34.471Z,2.30
2023-03-19T03:43:01.270Z,2.20
2023-03-19T03:45:27.693Z,2.10
2023-03-19T03:47:54.204Z,2.27
2023-03-19T03:50:20.819Z,2.27
2023-03-19T03:52:47.850Z,1.80
2023-03-19T03:55:14.390Z,2.30
2023-03-19T03:57:40.915Z,2.43
2023-03-19T04:00:08.057Z,2.10
2023-03-19T04:02:34.513Z,2.30
2023-03-19T04:05:01.043Z,1.93
2023-03-19T04:07:27.933Z,2.47
2023-03-19T04:09:55.196Z,2.30
2023-03-19T04:12:21.815Z,2.00
2023-03-19T04:14:48.324Z,2.07
2023-03-19T04:17:14.668Z,2.30
2023-03-19T04:19:41.145Z,2.07
2023-03-19T04:22:08.419Z,2.10
2023-03-19T04:24:35.087Z,2.20
2023-03-19T04:27:01.510Z,2.50
2023-03-19T04:29:27.890Z,2.20
2023-03-19T04:31:54.314Z,2.10
2023-03-19T04:34:20.958Z,2.60
2023-03-19T04:36:47.362Z,1.83
2023-03-19T04:39:13.670Z,2.20
2023-03-19T04:41:40.160Z,2.30
2023-03-19T04:44:07.603Z,2.67
2023-03-19T04:46:34.079Z,2.60
2023-03-19T04:49:00.472Z,2.20
2023-03-19T04:51:27.311Z,2.13
2023-03-19T04:53:53.703Z,2.40
2023-03-19T04:56:20.256Z,2.20
2023-03-19T04:58:46.657Z,2.17
2023-03-19T05:01:13.465Z,2.00
2023-03-19T05:03:40.002Z,1.97
2023-03-19T05:06:06.779Z,2.10
2023-03-19T05:08:33.117Z,1.77
2023-03-19T05:10:59.472Z,2.30
2023-03-19T05:13:25.840Z,1.80
2023-03-19T05:15:54.978Z,2.20
2023-03-19T05:18:21.522Z,1.90
2023-03-19T05:20:48.255Z,2.00
2023-03-19T05:23:14.786Z,1.97
2023-03-19T05:25:41.467Z,1.57
2023-03-19T05:28:08.218Z,2.03
2023-03-19T05:30:35.599Z,1.67
2023-03-19T05:33:03.815Z,1.70
2023-03-19T05:35:30.812Z,1.47
2023-03-19T05:37:57.857Z,2.07
2023-03-19T05:40:24.936Z,2.03
2023-03-19T05:42:51.454Z,1.73
2023-03-19T05:45:18.205Z,2.50
2023-03-19T05:47:47.309Z,2.07
2023-03-19T05:50:13.914Z,1.77
2023-03-19T05:52:40.318Z,1.80
2023-03-19T05:55:07.066Z,2.07
2023-03-19T05:57:33.400Z,1.90
2023-03-19T05:59:59.756Z,1.50
2023-03-19T06:02:26.170Z,2.20
2023-03-19T06:04:52.663Z,1.80
2023-03-19T06:07:19.040Z,1.60
2023-03-19T06:09:45.418Z,1.40
2023-03-19T06:12:11.922Z,1.80
2023-03-19T06:14:38.239Z,1.60
2023-03-19T06:17:04.605Z,1.93
2023-03-19T06:19:31.028Z,2.40
2023-03-19T06:21:57.510Z,1.67
2023-03-19T06:24:23.921Z,1.73
2023-03-19T06:26:50.244Z,2.07
2023-03-19T06:29:16.607Z,2.17
2023-03-19T06:31:43.031Z,1.60
2023-03-19T06:34:09.536Z,1.60
2023-03-19T06:36:35.875Z,1.77
2023-03-19T06:39:03.081Z,1.60
2023-03-19T06:41:29.775Z,1.90
2023-03-19T06:43:56.182Z,1.73
2023-03-19T06:46:23.205Z,2.00
2023-03-19T06:48:49.719Z,1.97
2023-03-19T06:51:16.217Z,2.10
2023-03-19T06:53:42.581Z,1.60
2023-03-19T06:56:10.248Z,1.57
2023-03-19T06:58:36.942Z,1.40
2023-03-19T07:01:03.887Z,1.70
2023-03-19T07:03:30.634Z,1.50
2023-03-19T07:05:57.076Z,1.90
2023-03-19T07:08:23.615Z,1.70
2023-03-19T07:10:50.093Z,1.40
2023-03-19T07:13:16.426Z,1.63
2023-03-19T07:15:42.804Z,1.43
2023-03-19T07:18:09.244Z,1.30
2023-03-19T07:20:36.246Z,1.90
2023-03-19T07:23:03.255Z,1.77
2023-03-19T07:25:29.701Z,1.57
2023-03-19T07:27:56.270Z,1.50
2023-03-19T07:30:22.726Z,1.30
2023-03-19T07:32:49.138Z,1.70
2023-03-19T07:35:15.551Z,1.50
2023-03-19T07:37:42.133Z,1.60
2023-03-19T07:40:09.875Z,1.50
2023-03-19T07:42:36.507Z,1.70
2023-03-19T07:45:04.440Z,1.50
2023-03-19T07:47:30.876Z,1.40
2023-03-19T07:49:58.034Z,1.60
2023-03-19T07:52:25.862Z,1.43
2023-03-19T07:54:52.938Z,1.30
2023-03-19T07:57:19.758Z,1.93
2023-03-19T07:59:46.466Z,1.50
2023-03-19T08:02:13.251Z,1.70
2023-03-19T08:04:40.142Z,1.50
2023-03-19T08:07:06.863Z,1.57
2023-03-19T08:09:34.044Z,1.53
2023-03-19T08:12:00.387Z,1.60
2023-03-19T08:14:26.847Z,1.50
2023-03-19T08:16:53.278Z,1.80
2023-03-19T08:19:19.664Z,1.87
2023-03-19T08:21:46.492Z,2.00
2023-03-19T08:24:12.912Z,1.90
2023-03-19T08:26:39.358Z,1.70
2023-03-19T08:29:06.492Z,2.00
2023-03-19T08:31:33.030Z,1.60
2023-03-19T08:34:10.234Z,1.80
2023-03-19T08:36:37.087Z,1.60
2023-03-19T08:39:04.190Z,2.13
2023-03-19T08:41:31.172Z,1.77
2023-03-19T08:43:57.501Z,2.00
2023-03-19T08:46:23.844Z,2.30
2023-03-19T08:48:50.278Z,2.03
2023-03-19T08:51:16.631Z,1.80
2023-03-19T08:53:43.027Z,2.10
2023-03-19T08:56:09.369Z,2.30
2023-03-19T08:58:35.946Z,2.07
2023-03-19T09:01:05.128Z,2.03
2023-03-19T09:03:32.201Z,2.13
2023-03-19T09:06:01.130Z,2.10
2023-03-19T09:08:28.632Z,2.43
2023-03-19T09:10:56.162Z,2.20
2023-03-19T09:13:23.276Z,2.20
2023-03-19T09:15:50.716Z,2.07
2023-03-19T09:18:18.229Z,2.27
2023-03-19T09:20:45.245Z,2.00
2023-03-19T09:23:11.717Z,2.13
2023-03-19T09:25:38.086Z,2.17
2023-03-19T09:28:04.681Z,2.20
2023-03-19T09:30:31.786Z,2.77
2023-03-19T09:32:58.324Z,2.40
2023-03-19T09:35:24.943Z,2.13
2023-03-19T09:37:52.127Z,2.17
2023-03-19T09:40:33.652Z,1.93
2023-03-19T09:43:33.480Z,2.27
2023-03-19T09:46:03.366Z,2.20
2023-03-19T09:48:46.887Z,2.37
2023-03-19T09:51:26.000Z,2.10
2023-03-19T09:54:02.773Z,1.87
2023-03-19T09:56:30.507Z,2.00
2023-03-19T09:58:56.918Z,2.00
2023-03-19T10:01:47.425Z,2.03
2023-03-19T10:04:37.408Z,2.00
2023-03-19T10:07:18.846Z,2.10
2023-03-19T10:10:18.321Z,2.17
2023-03-19T10:12:53.944Z,1.90
2023-03-19T10:15:31.028Z,1.70
2023-03-19T10:18:02.693Z,2.00
2023-03-19T10:20:35.411Z,1.93
2023-03-19T10:23:37.470Z,2.07
2023-03-19T10:26:08.726Z,1.80
2023-03-19T10:28:36.372Z,2.03
2023-03-19T10:31:25.863Z,1.70
2023-03-19T10:34:07.710Z,1.83
2023-03-19T10:36:36.169Z,2.07
2023-03-19T10:39:06.905Z,2.20
2023-03-19T10:41:56.566Z,2.00
2023-03-19T10:44:34.417Z,1.83
2023-03-19T10:47:11.811Z,1.93
2023-03-19T10:49:38.308Z,2.13
2023-03-19T10:52:06.032Z,1.90
2023-03-19T10:54:32.382Z,1.70
2023-03-19T10:57:00.359Z,2.33
2023-03-19T10:59:29.699Z,2.50
2023-03-19T11:02:17.736Z,2.77
2023-03-19T11:04:44.299Z,2.70
2023-03-19T11:07:14.136Z,2.07
2023-03-19T11:09:44.151Z,1.87
2023-03-19T11:12:18.804Z,2.43
2023-03-19T11:14:53.898Z,2.40
2023-03-19T11:17:27.482Z,2.30
2023-03-19T11:19:59.104Z,2.10
2023-03-19T11:22:28.466Z,1.90
2023-03-19T11:25:02.322Z,1.93
2023-03-19T11:27:35.111Z,1.90
2023-03-19T11:30:03.979Z,2.10
2023-03-19T11:32:46.622Z,1.90
2023-03-19T11:35:19.854Z,2.17
2023-03-19T11:37:51.912Z,1.90
2023-03-19T11:40:34.109Z,1.67
2023-03-19T11:43:11.774Z,1.67
2023-03-19T11:45:56.686Z,1.90
2023-03-19T11:49:00.737Z,1.90
2023-03-19T11:51:40.204Z,1.93
2023-03-19T11:54:25.293Z,1.80
2023-03-19T11:57:00.271Z,1.50
2023-03-19T11:59:56.261Z,1.70
2023-03-19T12:02:32.372Z,2.00
2023-03-19T12:05:01.759Z,1.60
2023-03-19T12:08:20.031Z,1.90
2023-03-19T12:10:59.062Z,1.83
2023-03-19T12:13:34.634Z,1.90
2023-03-19T12:16:19.903Z,1.80
2023-03-19T12:18:59.769Z,1.93
2023-03-19T12:21:34.943Z,1.80
2023-03-19T12:24:15.146Z,1.60
2023-03-19T12:27:04.286Z,1.90
2023-03-19T12:30:18.211Z,1.73
2023-03-19T12:33:03.305Z,1.33
2023-03-19T12:35:37.566Z,1.30
2023-03-19T12:38:25.447Z,1.50
2023-03-19T12:41:07.757Z,1.43
2023-03-19T12:43:54.353Z,1.20
2023-03-19T12:46:30.026Z,1.40
2023-03-19T12:49:14.230Z,1.03
2023-03-19T12:51:46.171Z,1.30
2023-03-19T12:54:23.683Z,1.33
2023-03-19T12:57:18.083Z,1.20
2023-03-19T13:00:07.050Z,1.10
2023-03-19T13:02:54.468Z,1.20
2023-03-19T13:05:52.989Z,1.43
2023-03-19T13:08:33.369Z,1.30
2023-03-19T13:11:02.763Z,1.10
2023-03-19T13:14:02.089Z,1.30
2023-03-19T13:17:13.529Z,1.13
2023-03-19T13:19:53.969Z,1.30
2023-03-19T13:22:32.789Z,1.30
2023-03-19T13:25:01.656Z,1.30
2023-03-19T13:27:34.004Z,1.20
2023-03-19T13:30:07.864Z,1.40
2023-03-19T13:32:47.894Z,1.20
2023-03-19T13:35:28.541Z,1.03
2023-03-19T13:38:00.117Z,1.20
2023-03-19T13:40:38.244Z,1.23
2023-03-19T13:43:04.708Z,1.20
2023-03-19T13:45:38.266Z,1.00
2023-03-19T13:48:35.993Z,1.30
2023-03-19T13:51:27.214Z,1.10
2023-03-19T13:54:16.344Z,1.10
2023-03-19T13:57:05.806Z,1.40
2023-03-19T13:59:37.703Z,1.00
2023-03-19T14:02:24.158Z,1.10
2023-03-19T14:04:57.284Z,1.10
2023-03-19T14:07:42.319Z,1.00
2023-03-19T14:10:31.711Z,1.17
2023-03-19T14:13:06.967Z,1.20
2023-03-19T14:15:35.241Z,5.27
2023-03-19T14:18:05.790Z,1.70
2023-03-19T14:20:40.509Z,1.43
2023-03-19T14:23:17.879Z,1.40
2023-03-19T14:26:12.364Z,1.33
2023-03-19T14:28:44.715Z,1.37
2023-03-19T14:31:35.190Z,2.33
2023-03-19T14:34:16.579Z,2.30
2023-03-19T14:36:48.909Z,1.50
2023-03-19T14:39:27.899Z,1.50
2023-03-19T14:42:24.461Z,1.20
2023-03-19T14:45:14.269Z,1.27
2023-03-19T14:47:55.500Z,1.20
2023-03-19T14:50:26.172Z,1.10
2023-03-19T14:52:58.278Z,1.00
2023-03-19T14:55:34.323Z,0.80
2023-03-19T14:58:02.067Z,0.90
2023-03-19T15:00:28.706Z,1.17
2023-03-19T15:02:56.114Z,1.50
2023-03-19T15:05:27.602Z,1.20
2023-03-19T15:08:12.265Z,1.10
2023-03-19T15:10:54.954Z,1.30
2023-03-19T15:13:30.521Z,1.33
2023-03-19T15:16:20.206Z,1.10
2023-03-19T15:18:46.663Z,1.07
2023-03-19T15:21:13.106Z,1.27
2023-03-19T15:23:41.699Z,1.30
2023-03-19T15:26:11.637Z,1.23
2023-03-19T15:28:54.011Z,1.57
2023-03-19T15:31:38.363Z,1.63
2023-03-19T15:34:27.859Z,1.80
2023-03-19T15:37:07.905Z,2.20
2023-03-19T15:39:41.722Z,2.70
2023-03-19T15:42:08.619Z,2.87
2023-03-19T15:44:58.217Z,3.03
2023-03-19T15:47:29.830Z,2.40
2023-03-19T15:50:01.784Z,2.27
2023-03-19T15:52:33.460Z,2.70
2023-03-19T15:55:02.232Z,2.50
2023-03-19T15:57:29.150Z,2.57
2023-03-19T15:59:59.007Z,2.00
2023-03-19T16:02:33.569Z,2.40
2023-03-19T16:05:21.055Z,2.70
2023-03-19T16:07:54.829Z,2.90
2023-03-19T16:10:31.382Z,3.00
2023-03-19T16:13:03.766Z,2.73
2023-03-19T16:15:40.492Z,2.87
2023-03-19T16:18:23.143Z,3.80
2023-03-19T16:21:07.203Z,4.20
2023-03-19T16:23:40.924Z,3.87
2023-03-19T16:26:23.076Z,3.10
2023-03-19T16:29:00.193Z,3.37
2023-03-19T16:31:31.847Z,3.10
2023-03-19T16:33:58.345Z,3.20
2023-03-19T16:36:29.968Z,2.90
2023-03-19T16:39:24.327Z,2.93
2023-03-19T16:42:10.953Z,3.40
2023-03-19T16:44:42.094Z,3.50
2023-03-19T16:47:11.042Z,3.63
2023-03-19T16:49:37.493Z,3.93
2023-03-19T16:52:05.288Z,3.73
2023-03-19T16:54:31.843Z,3.97
2023-03-19T16:56:58.238Z,3.30
2023-03-19T16:59:29.148Z,3.63
2023-03-19T17:01:55.822Z,3.60
2023-03-19T17:04:23.733Z,3.43
2023-03-19T17:06:50.602Z,3.40
2023-03-19T17:09:16.986Z,3.80
2023-03-19T17:11:43.977Z,4.27
2023-03-19T17:14:18.424Z,4.00
2023-03-19T17:16:50.357Z,4.20
2023-03-19T17:19:34.405Z,4.10
2023-03-19T17:22:01.796Z,4.40
2023-03-19T17:24:37.366Z,3.87
2023-03-19T17:27:04.458Z,3.40
2023-03-19T17:29:31.615Z,3.40
2023-03-19T17:32:01.788Z,3.27
2023-03-19T17:34:32.947Z,3.50
2023-03-19T17:37:01.412Z,3.53
2023-03-19T17:39:31.937Z,3.60
2023-03-19T17:41:59.139Z,3.50
2023-03-19T17:44:25.821Z,3.90
2023-03-19T17:46:54.118Z,3.80
2023-03-19T17:49:28.960Z,3.43
2023-03-19T17:51:56.377Z,2.60
2023-03-19T17:54:22.756Z,3.30
2023-03-19T17:56:49.516Z,3.70
2023-03-19T17:59:15.866Z,3.70
2023-03-19T18:01:47.009Z,3.93
2023-03-19T18:04:16.122Z,4.30
2023-03-19T18:06:46.408Z,4.20
2023-03-19T18:09:22.230Z,4.97
2023-03-19T18:11:48.732Z,4.63
2023-03-19T18:14:15.563Z,3.60
2023-03-19T18:16:42.683Z,4.20
2023-03-19T18:19:37.207Z,4.20
2023-03-19T18:22:14.857Z,4.10
2023-03-19T18:24:41.534Z,3.80
2023-03-19T18:27:08.077Z,4.20
2023-03-19T18:29:34.427Z,4.30
2023-03-19T18:32:11.520Z,4.33
2023-03-19T18:34:38.195Z,5.00
2023-03-19T18:37:04.768Z,4.60
2023-03-19T18:39:32.765Z,5.77
2023-03-19T18:41:59.102Z,5.43
2023-03-19T18:44:25.622Z,6.07
2023-03-19T18:46:51.963Z,6.37
2023-03-19T18:49:26.506Z,7.83
2023-03-19T18:52:02.649Z,10.20
2023-03-19T18:54:33.344Z,10.17
2023-03-19T18:57:01.816Z,10.30
2023-03-19T18:59:32.886Z,10.20
2023-03-19T19:02:25.087Z,11.10
2023-03-19T19:04:51.424Z,9.00
2023-03-19T19:07:17.925Z,9.03
2023-03-19T19:09:44.400Z,8.87
2023-03-19T19:12:18.297Z,8.43
2023-03-19T19:14:45.724Z,7.37
2023-03-19T19:17:21.286Z,8.57
2023-03-19T19:19:47.726Z,7.83
2023-03-19T19:22:16.332Z,8.00
2023-03-19T19:24:43.903Z,8.10
2023-03-19T19:27:17.387Z,8.43
2023-03-19T19:29:43.977Z,8.50
2023-03-19T19:32:32.275Z,8.60
2023-03-19T19:34:58.681Z,8.73
2023-03-19T19:37:25.311Z,8.50
2023-03-19T19:39:52.246Z,11.17
2023-03-19T19:42:21.148Z,13.27
2023-03-19T19:44:53.228Z,10.20
2023-03-19T19:47:19.629Z,10.83
2023-03-19T19:49:46.175Z,10.80
2023-03-19T19:52:17.962Z,10.57
2023-03-19T19:54:45.592Z,10.40
2023-03-19T19:57:24.440Z,9.83
2023-03-19T19:59:51.731Z,9.17
2023-03-19T20:02:26.793Z,8.70
2023-03-19T20:04:53.634Z,9.10
2023-03-19T20:07:20.620Z,11.13
2023-03-19T20:09:47.957Z,10.10
2023-03-19T20:12:24.627Z,9.13
2023-03-19T20:14:51.388Z,9.43
2023-03-19T20:17:20.726Z,10.30
2023-03-19T20:19:47.924Z,10.13
2023-03-19T20:22:14.352Z,9.83
2023-03-19T20:24:41.517Z,9.70
2023-03-19T20:27:31.345Z,10.47
2023-03-19T20:29:57.763Z,11.13
2023-03-19T20:32:33.449Z,11.13
2023-03-19T20:35:02.754Z,11.60
2023-03-19T20:37:30.046Z,11.40
2023-03-19T20:39:56.424Z,11.33
2023-03-19T20:42:23.412Z,10.53
2023-03-19T20:44:55.540Z,10.77
2023-03-19T20:47:22.061Z,10.33
2023-03-19T20:49:48.603Z,9.83
2023-03-19T20:52:16.287Z,9.17
2023-03-19T20:54:43.092Z,9.37
2023-03-19T20:57:14.776Z,9.03
2023-03-19T20:59:44.314Z,8.93
2023-03-19T21:02:19.477Z,9.50
2023-03-19T21:04:46.509Z,8.23
2023-03-19T21:07:23.600Z,9.07
2023-03-19T21:09:49.999Z,9.00
2023-03-19T21:12:36.763Z,8.97
2023-03-19T21:15:03.216Z,10.03
2023-03-19T21:17:29.635Z,10.53
2023-03-19T21:19:56.775Z,10.37
2023-03-19T21:22:28.495Z,11.47
2023-03-19T21:25:06.110Z,12.40
2023-03-19T21:27:35.645Z,13.10
2023-03-19T21:30:04.452Z,15.43
2023-03-19T21:32:31.932Z,15.30
2023-03-19T21:34:58.363Z,16.10
2023-03-19T21:37:24.764Z,17.37
2023-03-19T21:39:51.210Z,16.60
2023-03-19T21:42:22.519Z,18.10
2023-03-19T21:44:56.868Z,18.07
2023-03-19T21:47:23.253Z,20.63
2023-03-19T21:49:49.873Z,20.80
2023-03-19T21:52:18.770Z,20.50
2023-03-19T21:54:45.184Z,21.10
2023-03-19T21:57:16.432Z,20.10
2023-03-19T21:59:45.475Z,20.73
2023-03-19T22:02:27.059Z,20.60
2023-03-19T22:04:53.542Z,21.03
2023-03-19T22:07:20.025Z,21.60
2023-03-19T22:09:46.380Z,23.00
2023-03-19T22:12:25.896Z,23.07
2023-03-19T22:14:52.427Z,22.20
2023-03-19T22:17:26.478Z,22.47
2023-03-19T22:19:52.981Z,22.50
2023-03-19T22:22:19.419Z,23.23
2023-03-19T22:24:45.975Z,22.13
2023-03-19T22:27:16.158Z,21.10
2023-03-19T22:29:44.699Z,20.93
2023-03-19T22:32:18.657Z,20.73
2023-03-19T22:34:45.290Z,22.13
2023-03-19T22:37:28.450Z,20.67
2023-03-19T22:39:55.435Z,20.43
2023-03-19T22:42:24.751Z,20.27
2023-03-19T22:44:51.077Z,19.53
2023-03-19T22:47:24.654Z,18.50
2023-03-19T22:49:51.308Z,19.23
2023-03-19T22:52:18.103Z,18.50
2023-03-19T22:54:44.520Z,17.03
2023-03-19T22:57:17.283Z,17.60
2023-03-19T22:59:44.442Z,17.43
2023-03-19T23:02:14.653Z,17.07
2023-03-19T23:04:41.412Z,16.53
2023-03-19T23:07:12.639Z,16.60
2023-03-19T23:09:39.030Z,15.30
2023-03-19T23:12:07.365Z,14.93
2023-03-19T23:14:33.949Z,14.97
2023-03-19T23:17:06.686Z,15.30
2023-03-19T23:19:35.613Z,13.97
2023-03-19T23:22:04.989Z,11.97
2023-03-19T23:24:31.600Z,12.50
2023-03-19T23:26:59.835Z,12.40
2023-03-19T23:29:41.838Z,12.40
2023-03-19T23:32:10.635Z,12.47
2023-03-19T23:34:49.697Z,12.47
2023-03-19T23:37:24.391Z,12.00
2023-03-19T23:39:51.032Z,11.97
2023-03-19T23:42:27.792Z,11.00
2023-03-19T23:44:57.839Z,11.47
2023-03-19T23:47:24.306Z,11.83
2023-03-19T23:49:51.095Z,11.80
2023-03-19T23:52:17.523Z,12.03
2023-03-19T23:54:43.874Z,14.67
2023-03-19T23:57:15.475Z,11.63
2023-03-19T23:59:44.089Z,11.20
